sensor_id;sensor_type;location;lat;lon;timestamp;pressure;altitude;pressure_sealevel;temperature;humidity
71956;BME280;59829;50.562;6.258;2024-02-28T00:04:10;95911.06;;;10.43;78.63
71956;BME280;59829;50.562;6.258;2024-02-28T00:14:11;95926.53;;;10.42;78.53
71956;BME280;59829;50.562;6.258;2024-02-28T00:24:12;95931.66;;;10.42;78.51
71956;BME280;59829;50.562;6.258;2024-02-28T00:34:12;95930.13;;;10.39;78.40
71956;BME280;59829;50.562;6.258;2024-02-28T00:44:12;95937.94;;;10.38;78.26
71956;BME280;59829;50.562;6.258;2024-02-28T00:54:12;95931.19;;;10.37;78.18
71956;BME280;59829;50.562;6.258;2024-02-28T01:04:13;95939.78;;;10.36;78.02
71956;BME280;59829;50.562;6.258;2024-02-28T01:14:13;95930.59;;;10.33;77.76
71956;BME280;59829;50.562;6.258;2024-02-28T01:24:13;95918.72;;;10.32;77.70
71956;BME280;59829;50.562;6.258;2024-02-28T01:34:14;95920.59;;;10.30;77.67
71956;BME280;59829;50.562;6.258;2024-02-28T01:44:14;95921.53;;;10.29;77.59
71956;BME280;59829;50.562;6.258;2024-02-28T01:54:15;95924.09;;;10.29;77.34
71956;BME280;59829;50.562;6.258;2024-02-28T02:04:16;95925.03;;;10.28;77.29
71956;BME280;59829;50.562;6.258;2024-02-28T02:14:16;95920.84;;;10.27;77.07
71956;BME280;59829;50.562;6.258;2024-02-28T02:24:17;95926.91;;;10.26;76.91
71956;BME280;59829;50.562;6.258;2024-02-28T02:34:17;95919.44;;;10.23;76.74
71956;BME280;59829;50.562;6.258;2024-02-28T02:44:17;95917.81;;;10.22;76.53
71956;BME280;59829;50.562;6.258;2024-02-28T02:54:18;95921.28;;;10.21;76.53
71956;BME280;59829;50.562;6.258;2024-02-28T03:04:18;95928.25;;;10.19;76.33
71956;BME280;59829;50.562;6.258;2024-02-28T03:14:18;95925.00;;;10.17;75.90
71956;BME280;59829;50.562;6.258;2024-02-28T03:24:22;95926.84;;;10.15;75.88
71956;BME280;59829;50.562;6.258;2024-02-28T03:34:22;95938.03;;;10.14;75.66
71956;BME280;59829;50.562;6.258;2024-02-28T03:44:22;95946.63;;;10.13;75.60
71956;BME280;59829;50.562;6.258;2024-02-28T03:54:23;95951.06;;;10.11;75.51
71956;BME280;59829;50.562;6.258;2024-02-28T04:04:24;95954.56;;;10.10;75.27
71956;BME280;59829;50.562;6.258;2024-02-28T04:14:24;95957.22;;;10.08;75.23
71956;BME280;59829;50.562;6.258;2024-02-28T04:24:24;95964.09;;;10.08;75.14
71956;BME280;59829;50.562;6.258;2024-02-28T04:34:24;95961.75;;;10.05;74.85
71956;BME280;59829;50.562;6.258;2024-02-28T04:44:25;95977.91;;;10.05;74.95
71956;BME280;59829;50.562;6.258;2024-02-28T04:54:25;95993.28;;;10.05;74.78
71956;BME280;59829;50.562;6.258;2024-02-28T05:04:25;95981.41;;;10.04;74.67
71956;BME280;59829;50.562;6.258;2024-02-28T05:14:26;95997.56;;;10.05;74.51
71956;BME280;59829;50.562;6.258;2024-02-28T05:24:27;96005.25;;;10.05;74.44
71956;BME280;59829;50.562;6.258;2024-02-28T05:34:27;96015.50;;;10.05;74.05
71956;BME280;59829;50.562;6.258;2024-02-28T05:44:27;96021.53;;;10.04;74.13
71956;BME280;59829;50.562;6.258;2024-02-28T05:54:28;96014.78;;;10.03;74.07
71956;BME280;59829;50.562;6.258;2024-02-28T06:04:28;96028.53;;;10.02;73.93
71956;BME280;59829;50.562;6.258;2024-02-28T06:14:28;96045.72;;;10.00;73.91
71956;BME280;59829;50.562;6.258;2024-02-28T06:24:29;96050.84;;;10.00;73.85
71956;BME280;59829;50.562;6.258;2024-02-28T06:34:29;96071.56;;;9.96;73.94
71956;BME280;59829;50.562;6.258;2024-02-28T06:44:29;96072.50;;;9.95;73.60
71956;BME280;59829;50.562;6.258;2024-02-28T06:54:30;96070.03;;;9.94;73.55
71956;BME280;59829;50.562;6.258;2024-02-28T07:04:30;96076.91;;;9.93;73.48
71956;BME280;59829;50.562;6.258;2024-02-28T07:14:30;96083.66;;;9.94;73.36
71956;BME280;59829;50.562;6.258;2024-02-28T07:24:31;96088.78;;;9.94;73.35
71956;BME280;59829;50.562;6.258;2024-02-28T07:34:32;96097.38;;;9.93;73.29
71956;BME280;59829;50.562;6.258;2024-02-28T07:44:34;96100.88;;;9.92;73.37
71956;BME280;59829;50.562;6.258;2024-02-28T07:54:34;96101.69;;;9.93;73.27
71956;BME280;59829;50.562;6.258;2024-02-28T08:04:34;96103.31;;;9.94;73.44
71956;BME280;59829;50.562;6.258;2024-02-28T08:14:34;96121.09;;;9.95;73.32
71956;BME280;59829;50.562;6.258;2024-02-28T08:24:35;96131.34;;;9.95;73.40
71956;BME280;59829;50.562;6.258;2024-02-28T08:34:35;96141.59;;;9.95;73.44
71956;BME280;59829;50.562;6.258;2024-02-28T08:44:35;96148.44;;;9.71;72.89
71956;BME280;59829;50.562;6.258;2024-02-28T08:54:37;96150.47;;;9.79;72.89
71956;BME280;59829;50.562;6.258;2024-02-28T09:04:37;96156.75;;;9.86;72.88
71956;BME280;59829;50.562;6.258;2024-02-28T09:14:37;96167.50;;;9.91;73.03
71956;BME280;59829;50.562;6.258;2024-02-28T09:24:38;96167.16;;;9.95;73.27
71956;BME280;59829;50.562;6.258;2024-02-28T09:34:39;96179.75;;;9.98;73.37
71956;BME280;59829;50.562;6.258;2024-02-28T09:44:40;96171.84;;;10.02;73.14
71956;BME280;59829;50.562;6.258;2024-02-28T09:54:40;96175.09;;;10.04;73.61
71956;BME280;59829;50.562;6.258;2024-02-28T10:04:43;96180.72;;;10.09;73.61
71956;BME280;59829;50.562;6.258;2024-02-28T10:14:43;96162.59;;;10.12;73.68
71956;BME280;59829;50.562;6.258;2024-02-28T10:24:44;96155.38;;;10.17;73.90
71956;BME280;59829;50.562;6.258;2024-02-28T10:34:45;96141.66;;;10.18;73.91
71956;BME280;59829;50.562;6.258;2024-02-28T10:44:48;96150.03;;;10.20;74.02
71956;BME280;59829;50.562;6.258;2024-02-28T10:54:54;96165.19;;;10.23;74.03
71956;BME280;59829;50.562;6.258;2024-02-28T11:04:58;96176.19;;;10.25;74.38
71956;BME280;59829;50.562;6.258;2024-02-28T11:15:03;96171.75;;;10.27;74.47
71956;BME280;59829;50.562;6.258;2024-02-28T11:25:04;96163.03;;;10.30;74.55
71956;BME280;59829;50.562;6.258;2024-02-28T11:35:05;96159.44;;;10.32;74.50
71956;BME280;59829;50.562;6.258;2024-02-28T11:45:09;96156.75;;;10.34;74.66
71956;BME280;59829;50.562;6.258;2024-02-28T11:55:09;96138.72;;;10.35;74.64
71956;BME280;59829;50.562;6.258;2024-02-28T12:05:10;96121.47;;;10.37;74.78
71956;BME280;59829;50.562;6.258;2024-02-28T12:15:11;96118.81;;;10.39;74.75
71956;BME280;59829;50.562;6.258;2024-02-28T12:25:11;96113.56;;;10.40;74.77
71956;BME280;59829;50.562;6.258;2024-02-28T12:35:11;96105.69;;;10.43;74.75
71956;BME280;59829;50.562;6.258;2024-02-28T12:45:12;96090.91;;;10.47;74.82
71956;BME280;59829;50.562;6.258;2024-02-28T12:55:12;96099.97;;;10.51;74.82
71956;BME280;59829;50.562;6.258;2024-02-28T13:05:14;96093.69;;;10.55;75.07
71956;BME280;59829;50.562;6.258;2024-02-28T13:15:15;96086.81;;;10.55;75.03
71956;BME280;59829;50.562;6.258;2024-02-28T13:25:15;96081.47;;;10.58;74.68
71956;BME280;59829;50.562;6.258;2024-02-28T13:35:18;96077.06;;;10.61;74.86
71956;BME280;59829;50.562;6.258;2024-02-28T13:45:19;96070.06;;;10.63;74.84
71956;BME280;59829;50.562;6.258;2024-02-28T13:55:19;96071.72;;;10.64;74.86
71956;BME280;59829;50.562;6.258;2024-02-28T14:05:20;96072.28;;;10.67;74.83
71956;BME280;59829;50.562;6.258;2024-02-28T14:15:20;96058.66;;;10.67;74.84
71956;BME280;59829;50.562;6.258;2024-02-28T14:25:21;96062.84;;;10.68;74.97
71956;BME280;59829;50.562;6.258;2024-02-28T14:35:21;96067.03;;;10.69;74.85
71956;BME280;59829;50.562;6.258;2024-02-28T14:45:22;96069.59;;;10.69;75.04
71956;BME280;59829;50.562;6.258;2024-02-28T14:55:24;96067.97;;;10.68;74.96
71956;BME280;59829;50.562;6.258;2024-02-28T15:05:24;96061.22;;;10.67;75.21
71956;BME280;59829;50.562;6.258;2024-02-28T15:15:25;96057.97;;;10.65;75.31
71956;BME280;59829;50.562;6.258;2024-02-28T15:25:25;96064.72;;;10.66;75.55
71956;BME280;59829;50.562;6.258;2024-02-28T15:35:26;96058.53;;;10.68;75.70
71956;BME280;59829;50.562;6.258;2024-02-28T15:45:26;96054.22;;;10.69;75.85
71956;BME280;59829;50.562;6.258;2024-02-28T15:55:26;96055.84;;;10.70;76.01
71956;BME280;59829;50.562;6.258;2024-02-28T16:05:27;96042.13;;;10.71;76.15
71956;BME280;59829;50.562;6.258;2024-02-28T16:15:28;96042.13;;;10.71;76.28
71956;BME280;59829;50.562;6.258;2024-02-28T16:25:28;96037.00;;;10.71;76.33
71956;BME280;59829;50.562;6.258;2024-02-28T16:35:29;96029.06;;;10.74;76.52
71956;BME280;59829;50.562;6.258;2024-02-28T16:45:30;96027.19;;;10.76;76.84
71956;BME280;59829;50.562;6.258;2024-02-28T16:55:31;96024.63;;;10.76;76.87
71956;BME280;59829;50.562;6.258;2024-02-28T17:05:31;96016.25;;;10.74;76.81
71956;BME280;59829;50.562;6.258;2024-02-28T17:15:33;96010.44;;;10.72;76.80
71956;BME280;59829;50.562;6.258;2024-02-28T17:25:33;96014.06;;;10.69;76.93
71956;BME280;59829;50.562;6.258;2024-02-28T17:35:34;96016.72;;;10.68;76.75
71956;BME280;59829;50.562;6.258;2024-02-28T17:45:34;96013.47;;;10.66;76.79
71956;BME280;59829;50.562;6.258;2024-02-28T17:55:34;96012.78;;;10.64;76.77
71956;BME280;59829;50.562;6.258;2024-02-28T18:05:35;96014.66;;;10.62;76.60
71956;BME280;59829;50.562;6.258;2024-02-28T18:15:35;96015.59;;;10.61;76.75
71956;BME280;59829;50.562;6.258;2024-02-28T18:25:35;96009.66;;;10.60;76.58
71956;BME280;59829;50.562;6.258;2024-02-28T18:35:36;96002.97;;;10.57;76.45
71956;BME280;59829;50.562;6.258;2024-02-28T18:45:37;95993.66;;;10.56;76.58
71956;BME280;59829;50.562;6.258;2024-02-28T18:55:38;95996.22;;;10.56;76.38
71956;BME280;59829;50.562;6.258;2024-02-28T19:05:40;96001.34;;;10.56;76.42
71956;BME280;59829;50.562;6.258;2024-02-28T19:15:40;95990.19;;;10.57;76.38
71956;BME280;59829;50.562;6.258;2024-02-28T19:25:40;95993.66;;;10.56;76.41
71956;BME280;59829;50.562;6.258;2024-02-28T19:35:41;95986.91;;;10.55;76.37
71956;BME280;59829;50.562;6.258;2024-02-28T19:45:43;95999.72;;;10.55;76.49
71956;BME280;59829;50.562;6.258;2024-02-28T19:55:45;95982.72;;;10.54;76.41
71956;BME280;59829;50.562;6.258;2024-02-28T20:05:46;95986.22;;;10.53;76.49
71956;BME280;59829;50.562;6.258;2024-02-28T20:15:46;95986.22;;;10.53;76.61
71956;BME280;59829;50.562;6.258;2024-02-28T20:25:47;95980.16;;;10.54;76.61
71956;BME280;59829;50.562;6.258;2024-02-28T20:35:48;95984.47;;;10.54;76.70
71956;BME280;59829;50.562;6.258;2024-02-28T20:45:49;95968.28;;;10.53;76.53
71956;BME280;59829;50.562;6.258;2024-02-28T20:55:49;95956.31;;;10.54;76.53
71956;BME280;59829;50.562;6.258;2024-02-28T21:05:50;95952.13;;;10.53;76.56
71956;BME280;59829;50.562;6.258;2024-02-28T21:15:50;95933.38;;;10.52;76.82
71956;BME280;59829;50.562;6.258;2024-02-28T21:25:51;95934.31;;;10.51;76.57
71956;BME280;59829;50.562;6.258;2024-02-28T21:35:51;95916.50;;;10.50;76.37
71956;BME280;59829;50.562;6.258;2024-02-28T21:45:51;95901.94;;;10.50;76.70
71956;BME280;59829;50.562;6.258;2024-02-28T21:55:52;95896.81;;;10.50;76.63
71956;BME280;59829;50.562;6.258;2024-02-28T22:05:53;95887.50;;;10.49;76.66
71956;BME280;59829;50.562;6.258;2024-02-28T22:15:53;95885.19;;;10.46;76.52
71956;BME280;59829;50.562;6.258;2024-02-28T22:25:56;95886.81;;;10.47;76.50
71956;BME280;59829;50.562;6.258;2024-02-28T22:35:56;95881.81;;;10.46;76.32
71956;BME280;59829;50.562;6.258;2024-02-28T22:45:57;95865.97;;;10.41;76.29
71956;BME280;59829;50.562;6.258;2024-02-28T22:55:57;95847.97;;;10.42;76.52
71956;BME280;59829;50.562;6.258;2024-02-28T23:05:58;95840.28;;;10.42;76.59
71956;BME280;59829;50.562;6.258;2024-02-28T23:16:00;95830.97;;;10.41;76.30
71956;BME280;59829;50.562;6.258;2024-02-28T23:26:00;95824.19;;;10.40;76.40
71956;BME280;59829;50.562;6.258;2024-02-28T23:36:00;95809.78;;;10.39;76.35
71956;BME280;59829;50.562;6.258;2024-02-28T23:46:01;95810.72;;;10.38;76.24
71956;BME280;59829;50.562;6.258;2024-02-28T23:56:01;95803.97;;;10.37;76.18
